createdAt,value
2022-08-16T00:00:43.289Z,21.50
2022-08-16T00:03:13.300Z,21.50
2022-08-16T00:05:47.944Z,21.50
2022-08-16T00:08:36.018Z,21.40
2022-08-16T00:11:06.494Z,21.40
2022-08-16T00:13:41.746Z,21.30
2022-08-16T00:17:01.067Z,21.30
2022-08-16T00:18:59.943Z,21.20
2022-08-16T00:21:29.150Z,21.20
2022-08-16T00:23:57.472Z,21.20
2022-08-16T00:26:35.104Z,21.20
2022-08-16T00:29:07.081Z,21.20
2022-08-16T00:31:58.990Z,21.10
2022-08-16T00:34:43.446Z,21.20
2022-08-16T00:37:16.886Z,21.10
2022-08-16T00:39:46.924Z,21.10
2022-08-16T00:42:29.816Z,21.20
2022-08-16T00:45:06.422Z,21.10
2022-08-16T00:47:39.083Z,21.10
2022-08-16T00:50:11.860Z,21.10
2022-08-16T00:52:45.858Z,21.00
2022-08-16T00:55:19.555Z,21.00
2022-08-16T00:57:58.575Z,20.90
2022-08-16T01:00:32.375Z,20.80
2022-08-16T01:03:05.301Z,20.80
2022-08-16T01:05:34.012Z,20.70
2022-08-16T01:08:35.388Z,20.70
2022-08-16T01:10:52.926Z,20.60
2022-08-16T01:13:24.339Z,20.60
2022-08-16T01:15:58.548Z,20.50
2022-08-16T01:18:40.060Z,20.50
2022-08-16T01:21:24.209Z,20.50
2022-08-16T01:24:51.836Z,20.50
2022-08-16T01:27:14.980Z,20.40
2022-08-16T01:29:57.703Z,20.30
2022-08-16T01:32:33.625Z,20.30
2022-08-16T01:35:05.427Z,20.30
2022-08-16T01:37:42.364Z,20.20
2022-08-16T01:40:15.496Z,20.20
2022-08-16T01:42:48.238Z,20.10
2022-08-16T01:45:20.490Z,20.10
2022-08-16T01:47:51.895Z,20.10
2022-08-16T01:50:42.483Z,20.10
2022-08-16T01:53:11.026Z,20.10
2022-08-16T01:55:42.849Z,20.00
2022-08-16T01:58:23.954Z,20.00
2022-08-16T02:00:52.010Z,20.00
2022-08-16T02:03:24.568Z,20.00
2022-08-16T02:05:55.070Z,20.00
2022-08-16T02:08:32.815Z,19.90
2022-08-16T02:11:04.752Z,19.90
2022-08-16T02:13:33.086Z,19.90
2022-08-16T02:16:01.607Z,19.80
2022-08-16T02:18:29.879Z,19.80
2022-08-16T02:20:58.292Z,19.80
2022-08-16T02:23:29.605Z,19.80
2022-08-16T02:25:59.501Z,19.70
2022-08-16T02:28:30.065Z,19.70
2022-08-16T02:31:00.818Z,19.60
2022-08-16T02:33:43.250Z,19.70
2022-08-16T02:36:48.070Z,19.60
2022-08-16T02:39:02.512Z,19.60
2022-08-16T02:41:31.505Z,19.50
2022-08-16T02:44:03.774Z,19.50
2022-08-16T02:46:33.697Z,19.50
2022-08-16T02:49:02.465Z,19.50
2022-08-16T02:51:31.384Z,19.50
2022-08-16T02:53:59.703Z,19.40
2022-08-16T02:56:32.096Z,19.40
2022-08-16T02:59:00.829Z,19.30
2022-08-16T03:06:51.273Z,19.30
2022-08-16T03:09:28.490Z,19.20
2022-08-16T03:11:58.117Z,19.20
2022-08-16T03:14:26.792Z,19.20
2022-08-16T03:16:59.093Z,19.20
2022-08-16T03:19:48.103Z,19.20
2022-08-16T03:22:29.026Z,19.20
2022-08-16T03:25:01.111Z,19.10
2022-08-16T03:27:32.233Z,19.10
2022-08-16T03:30:02.597Z,19.10
2022-08-16T03:32:47.199Z,19.10
2022-08-16T03:35:17.517Z,19.00
2022-08-16T03:38:03.099Z,19.00
2022-08-16T03:40:33.983Z,19.00
2022-08-16T03:43:20.581Z,19.00
2022-08-16T03:45:52.961Z,19.00
2022-08-16T03:48:36.193Z,18.90
2022-08-16T03:51:08.043Z,18.90
2022-08-16T03:53:38.983Z,18.90
2022-08-16T03:56:10.168Z,18.90
2022-08-16T03:58:50.885Z,18.80
2022-08-16T04:01:20.945Z,18.80
2022-08-16T04:03:51.217Z,18.80
2022-08-16T04:06:21.849Z,18.70
2022-08-16T04:08:51.430Z,18.70
2022-08-16T04:11:19.740Z,18.70
2022-08-16T04:14:01.060Z,18.70
2022-08-16T04:16:41.331Z,18.70
2022-08-16T04:19:17.035Z,18.70
2022-08-16T04:21:45.952Z,18.60
2022-08-16T04:24:17.113Z,18.60
2022-08-16T04:26:46.505Z,18.60
2022-08-16T04:29:23.780Z,18.60
2022-08-16T04:31:56.873Z,18.60
2022-08-16T04:34:28.671Z,18.60
2022-08-16T04:36:58.996Z,18.60
2022-08-16T04:39:44.836Z,18.60
2022-08-16T04:42:16.073Z,18.60
2022-08-16T04:44:54.292Z,18.60
2022-08-16T04:47:25.231Z,18.70
2022-08-16T04:49:59.997Z,18.70
2022-08-16T04:52:34.875Z,18.70
2022-08-16T04:55:08.634Z,18.80
2022-08-16T04:57:38.579Z,18.80
2022-08-16T05:00:32.201Z,18.90
2022-08-16T05:03:02.946Z,19.00
2022-08-16T05:05:45.197Z,19.00
2022-08-16T05:08:28.770Z,19.10
2022-08-16T05:11:05.185Z,19.10
2022-08-16T05:13:41.003Z,19.20
2022-08-16T05:24:30.210Z,19.40
2022-08-16T05:27:00.331Z,19.50
2022-08-16T05:29:59.478Z,19.60
2022-08-16T05:32:32.861Z,19.70
2022-08-16T05:35:03.102Z,19.70
2022-08-16T05:37:39.844Z,19.90
2022-08-16T05:40:10.320Z,19.90
2022-08-16T05:42:49.212Z,20.00
2022-08-16T05:45:22.061Z,20.10
2022-08-16T05:48:00.096Z,20.20
2022-08-16T05:50:34.049Z,20.30
2022-08-16T05:53:02.698Z,20.40
2022-08-16T05:55:30.843Z,20.60
2022-08-16T05:58:04.716Z,20.60
2022-08-16T06:00:33.326Z,20.70
2022-08-16T06:03:01.451Z,20.80
2022-08-16T06:05:29.631Z,21.00
2022-08-16T06:08:04.414Z,21.00
2022-08-16T06:14:34.662Z,21.40
2022-08-16T06:17:05.341Z,23.40
2022-08-16T06:19:35.632Z,25.10
2022-08-16T06:22:04.396Z,26.20
2022-08-16T06:24:53.782Z,26.90
2022-08-16T06:27:20.565Z,27.90
2022-08-16T06:29:50.503Z,28.70
2022-08-16T06:32:28.074Z,30.00
2022-08-16T06:35:02.648Z,29.80
2022-08-16T06:37:36.844Z,30.60
2022-08-16T06:40:12.924Z,30.20
2022-08-16T06:42:47.309Z,30.40
2022-08-16T06:45:17.859Z,30.90
2022-08-16T06:47:52.865Z,31.70
2022-08-16T06:50:29.423Z,31.60
2022-08-16T06:53:01.065Z,32.30
2022-08-16T06:55:38.333Z,32.20
2022-08-16T06:58:08.619Z,32.50
2022-08-16T07:00:51.234Z,32.90
2022-08-16T07:03:27.438Z,33.10
2022-08-16T07:05:57.956Z,32.60
2022-08-16T07:08:27.666Z,32.50
2022-08-16T07:10:58.745Z,33.20
2022-08-16T07:14:00.574Z,32.90
2022-08-16T07:16:20.821Z,32.60
2022-08-16T07:18:59.203Z,32.80
2022-08-16T07:21:45.820Z,33.50
2022-08-16T07:24:30.407Z,33.80
2022-08-16T07:27:00.519Z,33.80
2022-08-16T07:29:31.784Z,33.40
2022-08-16T07:32:02.004Z,33.60
2022-08-16T07:34:34.850Z,33.80
2022-08-16T07:37:07.181Z,33.90
2022-08-16T07:39:36.055Z,34.00
2022-08-16T07:42:20.082Z,33.90
2022-08-16T07:44:50.316Z,33.60
2022-08-16T07:47:20.423Z,33.90
2022-08-16T07:49:58.099Z,34.10
2022-08-16T07:52:29.907Z,34.30
2022-08-16T07:54:58.263Z,34.80
2022-08-16T07:57:26.719Z,34.90
2022-08-16T07:59:57.148Z,34.30
2022-08-16T08:02:28.072Z,34.30
2022-08-16T08:04:56.364Z,34.60
2022-08-16T08:07:28.168Z,35.60
2022-08-16T08:09:57.491Z,34.90
2022-08-16T08:12:31.336Z,34.60
2022-08-16T08:15:04.131Z,35.20
2022-08-16T08:18:49.921Z,34.70
2022-08-16T08:20:28.394Z,34.20
2022-08-16T08:23:00.608Z,34.30
2022-08-16T08:25:53.386Z,34.80
2022-08-16T08:28:20.068Z,35.40
2022-08-16T08:31:01.230Z,35.80
2022-08-16T08:33:31.789Z,35.50
2022-08-16T08:36:05.151Z,35.90
2022-08-16T08:38:44.025Z,35.70
2022-08-16T08:41:18.306Z,35.20
2022-08-16T08:43:47.425Z,35.80
2022-08-16T08:46:21.801Z,35.80
2022-08-16T08:49:01.891Z,36.00
2022-08-16T08:51:36.691Z,36.00
2022-08-16T08:54:06.967Z,35.90
2022-08-16T08:56:45.715Z,35.60
2022-08-16T08:59:19.815Z,35.30
2022-08-16T09:01:57.760Z,35.40
2022-08-16T09:04:28.442Z,34.70
2022-08-16T09:06:58.491Z,35.10
2022-08-16T09:09:33.189Z,35.40
2022-08-16T09:12:06.753Z,35.20
2022-08-16T09:14:35.790Z,35.00
2022-08-16T09:17:11.287Z,35.10
2022-08-16T09:19:41.342Z,35.50
2022-08-16T09:22:19.972Z,35.50
2022-08-16T09:24:53.564Z,35.70
2022-08-16T09:27:23.321Z,35.80
2022-08-16T09:30:00.295Z,35.80
2022-08-16T09:32:31.372Z,35.60
2022-08-16T09:35:02.972Z,35.90
2022-08-16T09:37:36.858Z,35.80
2022-08-16T09:40:32.204Z,36.10
2022-08-16T09:42:59.031Z,36.00
2022-08-16T09:45:29.228Z,36.20
2022-08-16T09:47:58.931Z,36.50
2022-08-16T09:50:36.869Z,36.00
2022-08-16T09:53:15.377Z,36.50
2022-08-16T09:55:49.103Z,36.20
2022-08-16T09:58:37.789Z,35.80
2022-08-16T10:01:06.828Z,35.80
2022-08-16T10:03:36.991Z,35.60
2022-08-16T10:06:06.690Z,35.50
2022-08-16T10:09:04.976Z,35.00
2022-08-16T10:11:50.322Z,35.30
2022-08-16T10:14:19.812Z,35.30
2022-08-16T10:16:59.773Z,35.10
2022-08-16T10:19:31.901Z,35.00
2022-08-16T10:22:04.669Z,35.60
2022-08-16T10:24:34.045Z,35.10
2022-08-16T10:27:26.115Z,35.00
2022-08-16T10:30:00.055Z,34.90
2022-08-16T10:32:30.652Z,35.20
2022-08-16T10:35:00.571Z,35.20
2022-08-16T10:37:32.488Z,34.90
2022-08-16T10:40:06.170Z,34.70
2022-08-16T10:42:54.143Z,34.50
2022-08-16T10:45:22.884Z,34.00
2022-08-16T10:48:02.927Z,33.60
2022-08-16T10:50:33.532Z,33.60
2022-08-16T10:53:06.497Z,33.50
2022-08-16T10:55:44.827Z,33.30
2022-08-16T10:58:16.740Z,33.00
2022-08-16T11:00:46.491Z,32.80
2022-08-16T11:06:06.258Z,32.80
2022-08-16T11:08:43.387Z,32.90
2022-08-16T11:11:19.614Z,32.70
2022-08-16T11:13:58.838Z,32.30
2022-08-16T11:17:02.240Z,32.00
2022-08-16T11:19:16.825Z,32.20
2022-08-16T11:24:42.409Z,32.20
2022-08-16T11:27:23.726Z,32.10
2022-08-16T11:29:55.554Z,32.20
2022-08-16T11:32:31.396Z,32.20
2022-08-16T11:35:10.392Z,32.30
2022-08-16T11:40:33.159Z,32.10
2022-08-16T11:43:04.781Z,32.00
2022-08-16T11:45:34.845Z,32.00
2022-08-16T11:48:03.334Z,32.00
2022-08-16T11:50:33.527Z,31.80
2022-08-16T11:53:03.641Z,31.60
2022-08-16T11:55:34.544Z,31.70
2022-08-16T11:58:08.493Z,31.60
2022-08-16T12:00:51.343Z,31.60
2022-08-16T12:03:24.981Z,31.50
2022-08-16T12:06:00.699Z,31.40
2022-08-16T12:08:29.776Z,31.30
2022-08-16T12:11:02.597Z,31.20
2022-08-16T12:13:30.863Z,31.10
2022-08-16T12:15:58.973Z,31.10
2022-08-16T12:18:27.177Z,30.90
2022-08-16T12:20:55.457Z,30.40
2022-08-16T12:23:26.603Z,30.50
2022-08-16T12:25:54.963Z,30.60
2022-08-16T12:28:36.765Z,30.60
2022-08-16T12:31:12.772Z,30.70
2022-08-16T12:33:44.887Z,30.70
2022-08-16T12:36:14.111Z,30.70
2022-08-16T12:38:48.414Z,30.80
2022-08-16T12:41:25.188Z,30.60
2022-08-16T12:43:57.289Z,30.60
2022-08-16T12:46:31.085Z,30.80
2022-08-16T12:48:59.170Z,31.20
2022-08-16T12:51:33.043Z,31.50
2022-08-16T12:54:20.146Z,31.90
2022-08-16T12:56:50.435Z,32.00
2022-08-16T12:59:21.875Z,32.20
2022-08-16T13:01:58.003Z,32.30
2022-08-16T13:04:27.963Z,32.30
2022-08-16T13:09:32.991Z,31.70
2022-08-16T13:12:19.918Z,31.70
2022-08-16T13:14:52.226Z,31.50
2022-08-16T13:17:22.871Z,31.60
2022-08-16T13:20:07.190Z,31.60
2022-08-16T13:22:38.232Z,31.80
2022-08-16T13:25:08.873Z,31.70
2022-08-16T13:28:14.854Z,31.60
2022-08-16T13:30:37.214Z,31.50
2022-08-16T13:33:11.181Z,31.30
2022-08-16T13:35:43.021Z,31.20
2022-08-16T13:38:25.151Z,31.20
2022-08-16T13:40:56.165Z,31.10
2022-08-16T13:43:26.608Z,30.80
2022-08-16T13:45:57.015Z,30.60
2022-08-16T13:48:42.509Z,30.50
2022-08-16T13:51:16.653Z,30.50
2022-08-16T13:53:45.883Z,30.60
2022-08-16T13:56:24.942Z,30.80
2022-08-16T13:58:54.897Z,30.50
2022-08-16T14:01:24.950Z,30.70
2022-08-16T14:03:54.793Z,30.40
2022-08-16T14:06:24.164Z,30.30
2022-08-16T14:08:59.336Z,30.30
2022-08-16T14:11:34.922Z,30.40
2022-08-16T14:14:05.527Z,30.50
2022-08-16T14:16:35.745Z,30.80
2022-08-16T14:19:06.854Z,31.10
2022-08-16T14:21:35.953Z,31.00
2022-08-16T14:24:07.939Z,31.00
2022-08-16T14:26:51.017Z,30.50
2022-08-16T14:29:21.914Z,30.20
2022-08-16T14:31:53.749Z,30.10
2022-08-16T14:34:25.540Z,29.90
2022-08-16T14:36:57.376Z,29.70
2022-08-16T14:39:27.867Z,29.50
2022-08-16T14:41:56.182Z,29.60
2022-08-16T14:44:26.251Z,29.60
2022-08-16T14:46:57.737Z,29.70
2022-08-16T14:49:25.790Z,29.80
2022-08-16T14:51:54.836Z,29.90
2022-08-16T14:54:27.287Z,30.00
2022-08-16T14:56:56.790Z,30.20
2022-08-16T14:59:25.465Z,30.10
2022-08-16T15:01:58.722Z,30.00
2022-08-16T15:04:40.451Z,30.10
2022-08-16T15:07:18.110Z,30.10
2022-08-16T15:10:00.825Z,30.00
2022-08-16T15:12:34.068Z,30.20
2022-08-16T15:15:12.632Z,30.20
2022-08-16T15:17:55.830Z,30.20
2022-08-16T15:20:29.229Z,30.40
2022-08-16T15:22:59.146Z,30.30
2022-08-16T15:25:31.206Z,30.10
2022-08-16T15:28:02.539Z,30.00
2022-08-16T15:30:56.708Z,30.00
2022-08-16T15:33:25.743Z,30.10
2022-08-16T15:35:58.222Z,30.20
2022-08-16T15:38:54.646Z,30.40
2022-08-16T15:41:37.731Z,30.50
2022-08-16T15:44:10.798Z,30.30
2022-08-16T15:46:56.469Z,30.30
2022-08-16T15:49:37.566Z,30.40
2022-08-16T15:52:20.451Z,30.70
2022-08-16T15:54:53.180Z,30.50
2022-08-16T15:57:25.103Z,30.50
2022-08-16T15:59:55.782Z,30.40
2022-08-16T16:02:30.816Z,30.30
2022-08-16T16:05:01.602Z,30.30
2022-08-16T16:07:33.417Z,30.10
2022-08-16T16:10:02.865Z,30.00
2022-08-16T16:12:50.373Z,29.70
2022-08-16T16:15:22.759Z,29.70
2022-08-16T16:17:52.560Z,29.40
2022-08-16T16:20:24.534Z,29.40
2022-08-16T16:22:59.282Z,29.30
2022-08-16T16:25:28.274Z,29.30
2022-08-16T16:27:59.916Z,29.20
2022-08-16T16:30:37.837Z,29.00
2022-08-16T16:33:20.564Z,28.80
2022-08-16T16:35:55.342Z,28.70
2022-08-16T16:38:30.683Z,28.70
2022-08-16T16:41:00.134Z,28.80
2022-08-16T16:43:31.895Z,28.60
2022-08-16T16:46:05.825Z,28.50
2022-08-16T16:48:53.371Z,28.50
2022-08-16T16:51:22.861Z,28.50
2022-08-16T16:53:56.278Z,28.60
2022-08-16T16:56:31.247Z,28.70
2022-08-16T16:59:04.613Z,28.70
2022-08-16T17:01:56.867Z,28.60
2022-08-16T17:04:32.411Z,28.40
2022-08-16T17:07:02.043Z,28.30
2022-08-16T17:09:32.210Z,28.30
2022-08-16T17:12:00.388Z,28.20
2022-08-16T17:14:33.292Z,28.00
2022-08-16T17:17:08.509Z,27.90
2022-08-16T17:19:40.115Z,27.90
2022-08-16T17:22:14.226Z,27.90
2022-08-16T17:24:50.696Z,27.90
2022-08-16T17:27:32.541Z,27.80
2022-08-16T17:30:02.692Z,27.70
2022-08-16T17:32:47.290Z,27.70
2022-08-16T17:35:19.147Z,27.70
2022-08-16T17:37:51.541Z,27.60
2022-08-16T17:40:40.584Z,27.60
2022-08-16T17:43:13.440Z,27.50
2022-08-16T17:45:42.940Z,27.40
2022-08-16T17:48:11.485Z,27.30
2022-08-16T17:50:41.030Z,27.20
2022-08-16T17:53:10.104Z,27.10
2022-08-16T17:55:42.443Z,27.10
2022-08-16T17:58:23.266Z,27.10
2022-08-16T18:00:54.537Z,27.00
2022-08-16T18:04:06.638Z,27.00
2022-08-16T18:06:18.598Z,26.90
2022-08-16T18:08:48.895Z,26.90
2022-08-16T18:11:26.089Z,26.80
2022-08-16T18:13:55.765Z,26.80
2022-08-16T18:16:24.436Z,26.70
2022-08-16T18:18:52.487Z,26.80
2022-08-16T18:21:38.233Z,26.70
2022-08-16T18:24:06.609Z,26.70
2022-08-16T18:26:36.311Z,26.70
2022-08-16T18:29:04.679Z,26.60
2022-08-16T18:31:33.359Z,26.60
2022-08-16T18:34:02.749Z,26.50
2022-08-16T18:36:30.985Z,26.40
2022-08-16T18:38:59.543Z,26.30
2022-08-16T18:41:29.058Z,26.20
2022-08-16T18:44:22.885Z,26.10
2022-08-16T18:46:50.898Z,26.10
2022-08-16T18:49:19.713Z,26.00
2022-08-16T18:51:47.915Z,26.00
2022-08-16T18:54:18.276Z,25.90
2022-08-16T18:56:57.109Z,25.90
2022-08-16T18:59:28.333Z,25.80
2022-08-16T19:02:00.558Z,25.80
2022-08-16T19:04:48.972Z,25.80
2022-08-16T19:07:21.603Z,25.80
2022-08-16T19:09:49.783Z,25.80
2022-08-16T19:12:17.852Z,25.80
2022-08-16T19:15:11.966Z,25.80
2022-08-16T19:17:41.345Z,25.80
2022-08-16T19:20:11.331Z,25.80
2022-08-16T19:23:02.360Z,25.70
2022-08-16T19:25:47.351Z,25.70
2022-08-16T19:28:49.422Z,25.60
2022-08-16T19:31:12.339Z,25.50
2022-08-16T19:33:41.190Z,25.60
2022-08-16T19:36:31.550Z,25.60
2022-08-16T19:39:04.980Z,25.50
2022-08-16T19:41:34.910Z,25.50
2022-08-16T19:44:03.059Z,25.50
2022-08-16T19:46:32.669Z,25.30
2022-08-16T19:49:01.237Z,25.30
2022-08-16T19:51:29.630Z,25.20
2022-08-16T19:53:57.737Z,25.10
2022-08-16T19:56:26.890Z,25.10
2022-08-16T19:59:18.053Z,25.10
2022-08-16T20:01:46.307Z,25.00
2022-08-16T20:04:14.578Z,25.00
2022-08-16T20:06:43.221Z,24.90
2022-08-16T20:09:14.834Z,24.90
2022-08-16T20:11:43.887Z,24.90
2022-08-16T20:14:24.545Z,24.80
2022-08-16T20:16:56.881Z,24.80
2022-08-16T20:19:27.166Z,24.80
2022-08-16T20:21:56.464Z,24.80
2022-08-16T20:24:40.164Z,24.80
2022-08-16T20:27:09.815Z,24.70
2022-08-16T20:29:39.996Z,24.70
2022-08-16T20:32:12.943Z,24.70
2022-08-16T20:34:42.000Z,24.70
2022-08-16T20:37:12.618Z,24.60
2022-08-16T20:39:44.073Z,24.70
2022-08-16T20:42:17.762Z,24.60
2022-08-16T20:44:51.302Z,24.60
2022-08-16T20:47:21.701Z,24.60
2022-08-16T20:49:50.802Z,24.60
2022-08-16T20:52:20.234Z,24.50
2022-08-16T20:54:48.848Z,24.50
2022-08-16T20:57:17.457Z,24.40
2022-08-16T20:59:50.135Z,24.40
2022-08-16T21:02:27.371Z,24.40
2022-08-16T21:04:55.613Z,24.30
2022-08-16T21:07:23.977Z,24.20
2022-08-16T21:09:52.113Z,24.20
2022-08-16T21:12:20.175Z,24.10
2022-08-16T21:14:48.261Z,24.10
2022-08-16T21:17:16.592Z,24.00
2022-08-16T21:19:46.248Z,24.00
2022-08-16T21:22:16.910Z,23.90
2022-08-16T21:24:46.337Z,23.90
2022-08-16T21:27:15.188Z,23.80
2022-08-16T21:29:46.305Z,23.80
2022-08-16T21:32:16.827Z,23.70
2022-08-16T21:34:46.766Z,23.70
2022-08-16T21:37:15.614Z,23.70
2022-08-16T21:39:44.626Z,23.60
2022-08-16T21:42:15.536Z,23.60
2022-08-16T21:44:44.261Z,23.60
2022-08-16T21:47:12.367Z,23.50
2022-08-16T21:49:40.849Z,23.50
2022-08-16T21:52:21.170Z,23.40
2022-08-16T21:54:56.835Z,23.40
2022-08-16T21:57:25.202Z,23.40
2022-08-16T21:59:55.182Z,23.30
2022-08-16T22:02:25.822Z,23.30
2022-08-16T22:05:02.050Z,23.30
2022-08-16T22:07:31.532Z,23.20
2022-08-16T22:09:59.661Z,23.20
2022-08-16T22:12:48.081Z,23.20
2022-08-16T22:15:24.899Z,23.20
2022-08-16T22:17:54.241Z,23.10
2022-08-16T22:20:23.491Z,23.10
2022-08-16T22:22:53.342Z,23.10
2022-08-16T22:25:21.414Z,23.10
2022-08-16T22:27:49.785Z,23.10
2022-08-16T22:30:17.843Z,23.00
2022-08-16T22:32:46.924Z,23.10
2022-08-16T22:35:15.100Z,23.10
2022-08-16T22:38:55.037Z,23.00
2022-08-16T22:40:32.646Z,23.00
2022-08-16T22:43:00.694Z,23.00
2022-08-16T22:45:28.774Z,23.00
2022-08-16T22:47:56.868Z,23.00
2022-08-16T22:50:24.924Z,23.00
2022-08-16T22:53:00.239Z,22.90
2022-08-16T22:55:28.628Z,22.90
2022-08-16T22:57:58.413Z,22.90
2022-08-16T23:00:30.988Z,22.90
2022-08-16T23:03:02.915Z,22.90
2022-08-16T23:05:33.287Z,22.90
2022-08-16T23:08:02.269Z,22.80
2022-08-16T23:10:31.180Z,22.80
2022-08-16T23:13:06.107Z,22.80
2022-08-16T23:15:42.254Z,22.70
2022-08-16T23:18:10.937Z,22.70
2022-08-16T23:20:39.832Z,22.70
2022-08-16T23:23:19.793Z,22.70
2022-08-16T23:25:54.905Z,22.70
2022-08-16T23:28:27.357Z,22.70
2022-08-16T23:30:57.738Z,22.70
2022-08-16T23:33:27.046Z,22.70
2022-08-16T23:35:57.290Z,22.70
2022-08-16T23:38:38.526Z,22.60
2022-08-16T23:41:11.546Z,22.60
2022-08-16T23:43:43.673Z,22.60
2022-08-16T23:46:16.831Z,22.60
2022-08-16T23:49:57.136Z,22.50
2022-08-16T23:51:35.156Z,22.40
2022-08-16T23:54:03.211Z,22.40
2022-08-16T23:56:40.702Z,22.30
2022-08-16T23:59:10.391Z,22.30
